sensor_id;sensor_type;location;lat;lon;timestamp;P1;durP1;ratioP1;P2;durP2;ratioP2
12725;SDS011;6427;49.754;6.106;2022-09-09T00:06:54;4.27;;;1.33;;
12725;SDS011;6427;49.754;6.106;2022-09-09T00:09:21;4.97;;;1.57;;
12725;SDS011;6427;49.754;6.106;2022-09-09T00:11:52;5.55;;;1.67;;
12725;SDS011;6427;49.754;6.106;2022-09-09T00:17:01;3.93;;;1.20;;
12725;SDS011;6427;49.754;6.106;2022-09-09T00:19:29;2.80;;;1.37;;
12725;SDS011;6427;49.754;6.106;2022-09-09T00:22:14;4.23;;;0.93;;
12725;SDS011;6427;49.754;6.106;2022-09-09T00:24:45;3.90;;;0.90;;
12725;SDS011;6427;49.754;6.106;2022-09-09T00:27:25;3.00;;;1.07;;
12725;SDS011;6427;49.754;6.106;2022-09-09T00:29:55;5.27;;;1.10;;
12725;SDS011;6427;49.754;6.106;2022-09-09T00:32:21;5.30;;;1.30;;
12725;SDS011;6427;49.754;6.106;2022-09-09T00:34:54;3.77;;;1.10;;
12725;SDS011;6427;49.754;6.106;2022-09-09T00:37:20;3.17;;;1.00;;
12725;SDS011;6427;49.754;6.106;2022-09-09T00:39:48;5.00;;;1.20;;
12725;SDS011;6427;49.754;6.106;2022-09-09T00:42:17;4.17;;;1.20;;
12725;SDS011;6427;49.754;6.106;2022-09-09T00:47:41;5.80;;;1.60;;
12725;SDS011;6427;49.754;6.106;2022-09-09T00:50:18;3.67;;;1.40;;
12725;SDS011;6427;49.754;6.106;2022-09-09T00:58:12;4.90;;;1.90;;
12725;SDS011;6427;49.754;6.106;2022-09-09T01:00:42;7.87;;;1.60;;
12725;SDS011;6427;49.754;6.106;2022-09-09T01:03:29;8.57;;;1.50;;
12725;SDS011;6427;49.754;6.106;2022-09-09T01:11:10;7.10;;;1.50;;
12725;SDS011;6427;49.754;6.106;2022-09-09T01:13:36;3.13;;;1.10;;
12725;SDS011;6427;49.754;6.106;2022-09-09T01:16:04;4.03;;;1.40;;
12725;SDS011;6427;49.754;6.106;2022-09-09T01:18:43;6.00;;;1.27;;
12725;SDS011;6427;49.754;6.106;2022-09-09T01:21:13;1.83;;;1.03;;
12725;SDS011;6427;49.754;6.106;2022-09-09T01:24:00;2.03;;;0.87;;
12725;SDS011;6427;49.754;6.106;2022-09-09T01:26:34;2.33;;;1.10;;
12725;SDS011;6427;49.754;6.106;2022-09-09T01:29:01;6.67;;;1.23;;
12725;SDS011;6427;49.754;6.106;2022-09-09T01:31:32;5.68;;;1.45;;
12725;SDS011;6427;49.754;6.106;2022-09-09T01:33:59;6.13;;;1.53;;
12725;SDS011;6427;49.754;6.106;2022-09-09T01:36:43;4.27;;;1.10;;
12725;SDS011;6427;49.754;6.106;2022-09-09T01:39:09;6.53;;;1.23;;
12725;SDS011;6427;49.754;6.106;2022-09-09T01:41:38;5.63;;;1.03;;
12725;SDS011;6427;49.754;6.106;2022-09-09T01:44:05;6.67;;;1.30;;
12725;SDS011;6427;49.754;6.106;2022-09-09T01:46:33;5.93;;;1.30;;
12725;SDS011;6427;49.754;6.106;2022-09-09T01:49:00;3.17;;;0.90;;
12725;SDS011;6427;49.754;6.106;2022-09-09T01:51:29;3.53;;;1.27;;
12725;SDS011;6427;49.754;6.106;2022-09-09T01:53:56;4.63;;;1.47;;
12725;SDS011;6427;49.754;6.106;2022-09-09T01:59:24;4.83;;;1.63;;
12725;SDS011;6427;49.754;6.106;2022-09-09T02:04:23;4.27;;;1.50;;
12725;SDS011;6427;49.754;6.106;2022-09-09T02:06:51;4.97;;;1.00;;
12725;SDS011;6427;49.754;6.106;2022-09-09T02:09:19;5.50;;;1.50;;
12725;SDS011;6427;49.754;6.106;2022-09-09T02:11:46;6.62;;;1.67;;
12725;SDS011;6427;49.754;6.106;2022-09-09T02:14:24;2.50;;;1.20;;
12725;SDS011;6427;49.754;6.106;2022-09-09T02:16:46;4.17;;;1.20;;
12725;SDS011;6427;49.754;6.106;2022-09-09T02:19:25;4.83;;;1.00;;
12725;SDS011;6427;49.754;6.106;2022-09-09T02:21:57;5.30;;;1.30;;
12725;SDS011;6427;49.754;6.106;2022-09-09T02:24:25;2.57;;;1.13;;
12725;SDS011;6427;49.754;6.106;2022-09-09T02:26:53;5.73;;;1.67;;
12725;SDS011;6427;49.754;6.106;2022-09-09T02:29:33;5.63;;;1.20;;
12725;SDS011;6427;49.754;6.106;2022-09-09T02:32:03;3.60;;;0.93;;
12725;SDS011;6427;49.754;6.106;2022-09-09T02:34:27;5.15;;;1.40;;
12725;SDS011;6427;49.754;6.106;2022-09-09T02:36:55;6.93;;;1.80;;
12725;SDS011;6427;49.754;6.106;2022-09-09T02:39:22;4.40;;;1.63;;
12725;SDS011;6427;49.754;6.106;2022-09-09T02:41:50;5.70;;;1.10;;
12725;SDS011;6427;49.754;6.106;2022-09-09T02:44:18;7.13;;;1.30;;
12725;SDS011;6427;49.754;6.106;2022-09-09T02:47:05;4.47;;;1.10;;
12725;SDS011;6427;49.754;6.106;2022-09-09T02:55:37;5.80;;;1.53;;
12725;SDS011;6427;49.754;6.106;2022-09-09T02:58:09;2.77;;;1.00;;
12725;SDS011;6427;49.754;6.106;2022-09-09T03:00:36;3.10;;;1.20;;
12725;SDS011;6427;49.754;6.106;2022-09-09T03:03:03;9.07;;;1.63;;
12725;SDS011;6427;49.754;6.106;2022-09-09T03:05:31;10.67;;;1.80;;
12725;SDS011;6427;49.754;6.106;2022-09-09T03:07:59;5.80;;;1.60;;
12725;SDS011;6427;49.754;6.106;2022-09-09T03:10:27;7.97;;;1.33;;
12725;SDS011;6427;49.754;6.106;2022-09-09T03:12:55;7.90;;;1.70;;
12725;SDS011;6427;49.754;6.106;2022-09-09T03:15:23;7.93;;;1.70;;
12725;SDS011;6427;49.754;6.106;2022-09-09T03:17:50;6.20;;;1.70;;
12725;SDS011;6427;49.754;6.106;2022-09-09T03:20:18;7.57;;;2.17;;
12725;SDS011;6427;49.754;6.106;2022-09-09T03:22:46;7.23;;;1.67;;
12725;SDS011;6427;49.754;6.106;2022-09-09T03:25:14;6.13;;;1.53;;
12725;SDS011;6427;49.754;6.106;2022-09-09T03:27:42;3.97;;;1.80;;
12725;SDS011;6427;49.754;6.106;2022-09-09T03:30:10;5.43;;;1.70;;
12725;SDS011;6427;49.754;6.106;2022-09-09T03:32:37;8.27;;;2.00;;
12725;SDS011;6427;49.754;6.106;2022-09-09T03:35:05;5.00;;;1.50;;
12725;SDS011;6427;49.754;6.106;2022-09-09T03:37:32;5.37;;;1.83;;
12725;SDS011;6427;49.754;6.106;2022-09-09T03:40:01;7.77;;;1.90;;
12725;SDS011;6427;49.754;6.106;2022-09-09T03:42:28;9.53;;;1.90;;
12725;SDS011;6427;49.754;6.106;2022-09-09T03:44:56;6.63;;;1.80;;
12725;SDS011;6427;49.754;6.106;2022-09-09T03:47:23;7.70;;;1.90;;
12725;SDS011;6427;49.754;6.106;2022-09-09T03:49:51;7.50;;;2.08;;
12725;SDS011;6427;49.754;6.106;2022-09-09T03:52:18;6.07;;;1.70;;
12725;SDS011;6427;49.754;6.106;2022-09-09T03:54:46;8.80;;;2.00;;
12725;SDS011;6427;49.754;6.106;2022-09-09T03:57:14;8.20;;;1.80;;
12725;SDS011;6427;49.754;6.106;2022-09-09T03:59:41;6.40;;;1.60;;
12725;SDS011;6427;49.754;6.106;2022-09-09T04:02:09;4.73;;;1.70;;
12725;SDS011;6427;49.754;6.106;2022-09-09T04:04:37;7.97;;;1.80;;
12725;SDS011;6427;49.754;6.106;2022-09-09T04:07:04;7.63;;;1.80;;
12725;SDS011;6427;49.754;6.106;2022-09-09T04:09:32;6.60;;;1.70;;
12725;SDS011;6427;49.754;6.106;2022-09-09T04:12:00;5.63;;;1.77;;
12725;SDS011;6427;49.754;6.106;2022-09-09T04:14:27;7.93;;;1.70;;
12725;SDS011;6427;49.754;6.106;2022-09-09T04:16:55;8.80;;;1.50;;
12725;SDS011;6427;49.754;6.106;2022-09-09T04:19:22;6.73;;;1.70;;
12725;SDS011;6427;49.754;6.106;2022-09-09T04:21:50;8.50;;;1.70;;
12725;SDS011;6427;49.754;6.106;2022-09-09T04:24:17;5.87;;;1.60;;
12725;SDS011;6427;49.754;6.106;2022-09-09T04:26:46;6.17;;;1.80;;
12725;SDS011;6427;49.754;6.106;2022-09-09T04:29:13;4.13;;;1.50;;
12725;SDS011;6427;49.754;6.106;2022-09-09T04:31:41;6.30;;;1.57;;
12725;SDS011;6427;49.754;6.106;2022-09-09T04:34:08;7.30;;;1.97;;
12725;SDS011;6427;49.754;6.106;2022-09-09T04:36:36;10.93;;;2.00;;
12725;SDS011;6427;49.754;6.106;2022-09-09T04:39:04;9.03;;;2.23;;
12725;SDS011;6427;49.754;6.106;2022-09-09T04:41:32;6.57;;;1.60;;
12725;SDS011;6427;49.754;6.106;2022-09-09T04:44:00;6.20;;;1.53;;
12725;SDS011;6427;49.754;6.106;2022-09-09T04:46:28;6.43;;;1.27;;
12725;SDS011;6427;49.754;6.106;2022-09-09T04:48:56;6.03;;;1.30;;
12725;SDS011;6427;49.754;6.106;2022-09-09T04:51:24;7.43;;;1.67;;
12725;SDS011;6427;49.754;6.106;2022-09-09T04:53:51;6.20;;;1.43;;
12725;SDS011;6427;49.754;6.106;2022-09-09T04:56:19;6.20;;;1.77;;
12725;SDS011;6427;49.754;6.106;2022-09-09T04:58:47;9.43;;;1.80;;
12725;SDS011;6427;49.754;6.106;2022-09-09T05:01:15;9.43;;;1.60;;
12725;SDS011;6427;49.754;6.106;2022-09-09T05:03:45;9.40;;;1.67;;
12725;SDS011;6427;49.754;6.106;2022-09-09T05:06:14;7.25;;;2.10;;
12725;SDS011;6427;49.754;6.106;2022-09-09T05:08:42;8.63;;;1.60;;
12725;SDS011;6427;49.754;6.106;2022-09-09T05:11:19;6.80;;;1.50;;
12725;SDS011;6427;49.754;6.106;2022-09-09T05:13:46;8.00;;;1.57;;
12725;SDS011;6427;49.754;6.106;2022-09-09T05:16:13;9.60;;;1.70;;
12725;SDS011;6427;49.754;6.106;2022-09-09T05:18:42;11.73;;;1.83;;
12725;SDS011;6427;49.754;6.106;2022-09-09T05:21:10;6.30;;;1.63;;
12725;SDS011;6427;49.754;6.106;2022-09-09T05:23:37;7.27;;;1.70;;
12725;SDS011;6427;49.754;6.106;2022-09-09T05:26:06;9.67;;;1.73;;
12725;SDS011;6427;49.754;6.106;2022-09-09T05:28:34;9.17;;;2.00;;
12725;SDS011;6427;49.754;6.106;2022-09-09T05:31:08;9.00;;;1.73;;
12725;SDS011;6427;49.754;6.106;2022-09-09T05:33:33;7.53;;;2.23;;
12725;SDS011;6427;49.754;6.106;2022-09-09T05:36:04;6.80;;;1.80;;
12725;SDS011;6427;49.754;6.106;2022-09-09T05:38:31;9.15;;;2.10;;
12725;SDS011;6427;49.754;6.106;2022-09-09T05:40:59;11.60;;;2.47;;
12725;SDS011;6427;49.754;6.106;2022-09-09T05:43:26;9.03;;;1.93;;
12725;SDS011;6427;49.754;6.106;2022-09-09T05:46:28;7.90;;;1.53;;
12725;SDS011;6427;49.754;6.106;2022-09-09T05:48:34;10.27;;;1.67;;
12725;SDS011;6427;49.754;6.106;2022-09-09T05:51:02;6.93;;;1.80;;
12725;SDS011;6427;49.754;6.106;2022-09-09T05:53:29;7.53;;;1.73;;
12725;SDS011;6427;49.754;6.106;2022-09-09T05:56:07;8.83;;;1.67;;
12725;SDS011;6427;49.754;6.106;2022-09-09T05:58:34;5.77;;;1.27;;
12725;SDS011;6427;49.754;6.106;2022-09-09T06:03:36;8.50;;;1.43;;
12725;SDS011;6427;49.754;6.106;2022-09-09T06:06:04;7.53;;;1.67;;
12725;SDS011;6427;49.754;6.106;2022-09-09T06:08:34;9.43;;;1.63;;
12725;SDS011;6427;49.754;6.106;2022-09-09T06:11:01;8.50;;;2.07;;
12725;SDS011;6427;49.754;6.106;2022-09-09T06:13:28;3.37;;;1.13;;
12725;SDS011;6427;49.754;6.106;2022-09-09T06:15:56;7.53;;;1.20;;
12725;SDS011;6427;49.754;6.106;2022-09-09T06:18:24;7.87;;;1.53;;
12725;SDS011;6427;49.754;6.106;2022-09-09T06:20:55;4.10;;;1.47;;
12725;SDS011;6427;49.754;6.106;2022-09-09T06:23:21;5.83;;;1.30;;
12725;SDS011;6427;49.754;6.106;2022-09-09T06:25:49;9.30;;;1.60;;
12725;SDS011;6427;49.754;6.106;2022-09-09T06:28:17;8.13;;;1.52;;
12725;SDS011;6427;49.754;6.106;2022-09-09T06:30:44;6.70;;;1.60;;
12725;SDS011;6427;49.754;6.106;2022-09-09T06:33:12;6.17;;;1.37;;
12725;SDS011;6427;49.754;6.106;2022-09-09T06:35:39;9.20;;;2.53;;
12725;SDS011;6427;49.754;6.106;2022-09-09T06:38:07;7.67;;;1.80;;
12725;SDS011;6427;49.754;6.106;2022-09-09T06:40:35;10.37;;;1.63;;
12725;SDS011;6427;49.754;6.106;2022-09-09T06:43:03;7.68;;;1.77;;
12725;SDS011;6427;49.754;6.106;2022-09-09T06:45:30;8.83;;;1.80;;
12725;SDS011;6427;49.754;6.106;2022-09-09T06:47:58;8.73;;;1.40;;
12725;SDS011;6427;49.754;6.106;2022-09-09T06:50:26;7.60;;;1.80;;
12725;SDS011;6427;49.754;6.106;2022-09-09T06:52:53;8.40;;;1.30;;
12725;SDS011;6427;49.754;6.106;2022-09-09T06:55:21;6.67;;;1.70;;
12725;SDS011;6427;49.754;6.106;2022-09-09T06:57:49;9.33;;;1.70;;
12725;SDS011;6427;49.754;6.106;2022-09-09T07:00:17;10.30;;;1.90;;
12725;SDS011;6427;49.754;6.106;2022-09-09T07:02:44;9.57;;;1.67;;
12725;SDS011;6427;49.754;6.106;2022-09-09T07:05:12;6.53;;;2.10;;
12725;SDS011;6427;49.754;6.106;2022-09-09T07:07:40;7.27;;;1.77;;
12725;SDS011;6427;49.754;6.106;2022-09-09T07:10:08;7.03;;;1.50;;
12725;SDS011;6427;49.754;6.106;2022-09-09T07:12:35;6.77;;;1.30;;
12725;SDS011;6427;49.754;6.106;2022-09-09T07:15:03;9.82;;;2.00;;
12725;SDS011;6427;49.754;6.106;2022-09-09T07:17:31;7.20;;;1.60;;
12725;SDS011;6427;49.754;6.106;2022-09-09T07:19:58;8.95;;;1.90;;
12725;SDS011;6427;49.754;6.106;2022-09-09T07:22:27;7.60;;;1.97;;
12725;SDS011;6427;49.754;6.106;2022-09-09T07:24:53;6.17;;;1.30;;
12725;SDS011;6427;49.754;6.106;2022-09-09T07:27:22;7.97;;;1.40;;
12725;SDS011;6427;49.754;6.106;2022-09-09T07:29:49;7.97;;;1.50;;
12725;SDS011;6427;49.754;6.106;2022-09-09T07:32:17;7.63;;;1.47;;
12725;SDS011;6427;49.754;6.106;2022-09-09T07:34:44;5.43;;;1.60;;
12725;SDS011;6427;49.754;6.106;2022-09-09T07:37:12;10.97;;;1.50;;
12725;SDS011;6427;49.754;6.106;2022-09-09T07:39:39;7.17;;;1.40;;
12725;SDS011;6427;49.754;6.106;2022-09-09T07:42:07;7.87;;;1.50;;
12725;SDS011;6427;49.754;6.106;2022-09-09T07:44:35;8.47;;;2.00;;
12725;SDS011;6427;49.754;6.106;2022-09-09T07:47:03;8.47;;;1.60;;
12725;SDS011;6427;49.754;6.106;2022-09-09T07:49:30;9.30;;;1.98;;
12725;SDS011;6427;49.754;6.106;2022-09-09T07:51:58;8.77;;;1.98;;
12725;SDS011;6427;49.754;6.106;2022-09-09T07:54:25;7.60;;;1.30;;
12725;SDS011;6427;49.754;6.106;2022-09-09T07:56:53;15.87;;;1.73;;
12725;SDS011;6427;49.754;6.106;2022-09-09T07:59:21;12.63;;;1.67;;
12725;SDS011;6427;49.754;6.106;2022-09-09T08:01:49;11.87;;;1.80;;
12725;SDS011;6427;49.754;6.106;2022-09-09T08:04:17;4.07;;;1.60;;
12725;SDS011;6427;49.754;6.106;2022-09-09T08:06:48;8.57;;;1.90;;
12725;SDS011;6427;49.754;6.106;2022-09-09T08:09:15;6.70;;;1.50;;
12725;SDS011;6427;49.754;6.106;2022-09-09T08:11:43;6.50;;;1.53;;
12725;SDS011;6427;49.754;6.106;2022-09-09T08:14:11;6.00;;;1.30;;
12725;SDS011;6427;49.754;6.106;2022-09-09T08:16:42;8.73;;;1.50;;
12725;SDS011;6427;49.754;6.106;2022-09-09T08:19:07;6.77;;;1.30;;
12725;SDS011;6427;49.754;6.106;2022-09-09T08:21:35;5.77;;;1.50;;
12725;SDS011;6427;49.754;6.106;2022-09-09T08:24:02;6.00;;;1.40;;
12725;SDS011;6427;49.754;6.106;2022-09-09T08:26:30;5.27;;;1.57;;
12725;SDS011;6427;49.754;6.106;2022-09-09T08:29:00;7.00;;;1.77;;
12725;SDS011;6427;49.754;6.106;2022-09-09T08:31:32;7.17;;;1.27;;
12725;SDS011;6427;49.754;6.106;2022-09-09T08:33:59;8.55;;;1.92;;
12725;SDS011;6427;49.754;6.106;2022-09-09T08:36:27;8.33;;;1.33;;
12725;SDS011;6427;49.754;6.106;2022-09-09T08:38:55;10.73;;;1.60;;
12725;SDS011;6427;49.754;6.106;2022-09-09T08:44:03;7.93;;;1.53;;
12725;SDS011;6427;49.754;6.106;2022-09-09T08:49:22;6.80;;;1.53;;
12725;SDS011;6427;49.754;6.106;2022-09-09T08:51:45;7.27;;;1.40;;
12725;SDS011;6427;49.754;6.106;2022-09-09T08:54:12;8.93;;;1.50;;
12725;SDS011;6427;49.754;6.106;2022-09-09T08:56:41;9.43;;;1.73;;
12725;SDS011;6427;49.754;6.106;2022-09-09T08:59:08;5.30;;;1.40;;
12725;SDS011;6427;49.754;6.106;2022-09-09T09:04:44;6.10;;;1.60;;
12725;SDS011;6427;49.754;6.106;2022-09-09T09:08:22;7.23;;;1.37;;
12725;SDS011;6427;49.754;6.106;2022-09-09T09:10:10;9.77;;;1.70;;
12725;SDS011;6427;49.754;6.106;2022-09-09T09:12:35;10.03;;;1.60;;
12725;SDS011;6427;49.754;6.106;2022-09-09T09:15:00;7.10;;;1.40;;
12725;SDS011;6427;49.754;6.106;2022-09-09T09:17:28;6.77;;;1.50;;
12725;SDS011;6427;49.754;6.106;2022-09-09T09:19:55;6.40;;;1.37;;
12725;SDS011;6427;49.754;6.106;2022-09-09T09:25:05;7.70;;;1.17;;
12725;SDS011;6427;49.754;6.106;2022-09-09T09:27:31;5.70;;;1.13;;
12725;SDS011;6427;49.754;6.106;2022-09-09T09:30:17;6.80;;;1.37;;
12725;SDS011;6427;49.754;6.106;2022-09-09T09:32:53;4.33;;;1.00;;
12725;SDS011;6427;49.754;6.106;2022-09-09T09:35:19;6.28;;;1.35;;
12725;SDS011;6427;49.754;6.106;2022-09-09T09:37:48;5.67;;;1.37;;
12725;SDS011;6427;49.754;6.106;2022-09-09T09:40:17;5.97;;;1.57;;
12725;SDS011;6427;49.754;6.106;2022-09-09T09:42:48;5.13;;;1.40;;
12725;SDS011;6427;49.754;6.106;2022-09-09T09:46:00;6.60;;;1.40;;
12725;SDS011;6427;49.754;6.106;2022-09-09T09:47:42;7.03;;;1.20;;
12725;SDS011;6427;49.754;6.106;2022-09-09T09:50:17;8.77;;;1.20;;
12725;SDS011;6427;49.754;6.106;2022-09-09T09:52:51;6.27;;;1.00;;
12725;SDS011;6427;49.754;6.106;2022-09-09T09:55:12;5.90;;;1.20;;
12725;SDS011;6427;49.754;6.106;2022-09-09T09:57:39;8.47;;;1.10;;
12725;SDS011;6427;49.754;6.106;2022-09-09T10:00:16;3.87;;;1.10;;
12725;SDS011;6427;49.754;6.106;2022-09-09T10:02:44;9.37;;;1.30;;
12725;SDS011;6427;49.754;6.106;2022-09-09T10:05:18;6.23;;;1.20;;
12725;SDS011;6427;49.754;6.106;2022-09-09T10:08:00;7.33;;;1.20;;
12725;SDS011;6427;49.754;6.106;2022-09-09T10:10:46;8.63;;;1.40;;
12725;SDS011;6427;49.754;6.106;2022-09-09T10:13:18;3.97;;;0.90;;
12725;SDS011;6427;49.754;6.106;2022-09-09T10:15:48;6.10;;;1.10;;
12725;SDS011;6427;49.754;6.106;2022-09-09T10:18:36;6.07;;;1.48;;
12725;SDS011;6427;49.754;6.106;2022-09-09T10:23:27;7.83;;;1.20;;
12725;SDS011;6427;49.754;6.106;2022-09-09T10:28:57;3.90;;;1.13;;
12725;SDS011;6427;49.754;6.106;2022-09-09T10:31:25;5.63;;;1.20;;
12725;SDS011;6427;49.754;6.106;2022-09-09T10:36:38;3.90;;;0.77;;
12725;SDS011;6427;49.754;6.106;2022-09-09T10:39:12;4.03;;;0.90;;
12725;SDS011;6427;49.754;6.106;2022-09-09T10:44:41;6.67;;;1.00;;
12725;SDS011;6427;49.754;6.106;2022-09-09T10:55:45;4.97;;;0.90;;
12725;SDS011;6427;49.754;6.106;2022-09-09T10:58:16;6.00;;;0.93;;
12725;SDS011;6427;49.754;6.106;2022-09-09T11:00:52;3.50;;;0.80;;
12725;SDS011;6427;49.754;6.106;2022-09-09T11:03:18;5.37;;;1.00;;
12725;SDS011;6427;49.754;6.106;2022-09-09T11:05:51;5.23;;;1.03;;
12725;SDS011;6427;49.754;6.106;2022-09-09T11:08:24;3.50;;;0.83;;
12725;SDS011;6427;49.754;6.106;2022-09-09T11:11:03;4.35;;;0.88;;
12725;SDS011;6427;49.754;6.106;2022-09-09T11:16:24;4.27;;;0.90;;
12725;SDS011;6427;49.754;6.106;2022-09-09T11:19:00;6.25;;;1.00;;
12725;SDS011;6427;49.754;6.106;2022-09-09T11:21:33;6.37;;;0.90;;
12725;SDS011;6427;49.754;6.106;2022-09-09T11:24:02;5.73;;;0.73;;
12725;SDS011;6427;49.754;6.106;2022-09-09T11:26:36;4.00;;;0.70;;
12725;SDS011;6427;49.754;6.106;2022-09-09T11:31:54;7.43;;;1.00;;
12725;SDS011;6427;49.754;6.106;2022-09-09T11:44:42;3.60;;;0.73;;
12725;SDS011;6427;49.754;6.106;2022-09-09T11:47:20;4.20;;;0.97;;
12725;SDS011;6427;49.754;6.106;2022-09-09T11:49:49;3.20;;;0.70;;
12725;SDS011;6427;49.754;6.106;2022-09-09T11:52:21;4.57;;;0.67;;
12725;SDS011;6427;49.754;6.106;2022-09-09T11:54:50;2.77;;;0.90;;
12725;SDS011;6427;49.754;6.106;2022-09-09T11:57:36;6.67;;;1.07;;
12725;SDS011;6427;49.754;6.106;2022-09-09T12:00:00;3.53;;;0.70;;
12725;SDS011;6427;49.754;6.106;2022-09-09T12:02:28;2.90;;;0.50;;
12725;SDS011;6427;49.754;6.106;2022-09-09T12:05:08;3.95;;;0.68;;
12725;SDS011;6427;49.754;6.106;2022-09-09T12:07:41;5.10;;;0.83;;
12725;SDS011;6427;49.754;6.106;2022-09-09T12:10:27;5.77;;;0.87;;
12725;SDS011;6427;49.754;6.106;2022-09-09T12:12:54;4.00;;;0.80;;
12725;SDS011;6427;49.754;6.106;2022-09-09T12:15:23;3.40;;;0.90;;
12725;SDS011;6427;49.754;6.106;2022-09-09T12:17:52;3.53;;;0.80;;
12725;SDS011;6427;49.754;6.106;2022-09-09T12:26:12;4.77;;;0.70;;
12725;SDS011;6427;49.754;6.106;2022-09-09T12:34:14;3.27;;;0.53;;
12725;SDS011;6427;49.754;6.106;2022-09-09T12:36:42;1.23;;;0.50;;
12725;SDS011;6427;49.754;6.106;2022-09-09T12:39:14;4.37;;;0.80;;
12725;SDS011;6427;49.754;6.106;2022-09-09T12:41:37;2.13;;;0.80;;
12725;SDS011;6427;49.754;6.106;2022-09-09T12:44:05;4.00;;;0.80;;
12725;SDS011;6427;49.754;6.106;2022-09-09T12:46:36;4.40;;;0.97;;
12725;SDS011;6427;49.754;6.106;2022-09-09T12:51:58;5.37;;;0.80;;
12725;SDS011;6427;49.754;6.106;2022-09-09T12:54:26;6.87;;;0.90;;
12725;SDS011;6427;49.754;6.106;2022-09-09T12:56:53;2.47;;;0.70;;
12725;SDS011;6427;49.754;6.106;2022-09-09T12:59:22;6.03;;;1.23;;
12725;SDS011;6427;49.754;6.106;2022-09-09T13:01:55;3.57;;;1.00;;
12725;SDS011;6427;49.754;6.106;2022-09-09T13:04:19;2.83;;;0.80;;
12725;SDS011;6427;49.754;6.106;2022-09-09T13:06:46;4.33;;;1.20;;
12725;SDS011;6427;49.754;6.106;2022-09-09T13:09:14;2.87;;;0.77;;
12725;SDS011;6427;49.754;6.106;2022-09-09T13:11:42;4.37;;;0.97;;
12725;SDS011;6427;49.754;6.106;2022-09-09T13:14:17;5.70;;;1.10;;
12725;SDS011;6427;49.754;6.106;2022-09-09T13:16:53;11.90;;;2.10;;
12725;SDS011;6427;49.754;6.106;2022-09-09T13:19:14;4.00;;;0.90;;
12725;SDS011;6427;49.754;6.106;2022-09-09T13:21:42;5.57;;;1.10;;
12725;SDS011;6427;49.754;6.106;2022-09-09T13:24:28;5.30;;;1.40;;
12725;SDS011;6427;49.754;6.106;2022-09-09T13:26:55;5.33;;;1.30;;
12725;SDS011;6427;49.754;6.106;2022-09-09T13:29:22;3.23;;;0.80;;
12725;SDS011;6427;49.754;6.106;2022-09-09T13:31:51;5.33;;;0.70;;
12725;SDS011;6427;49.754;6.106;2022-09-09T13:34:28;5.03;;;0.70;;
12725;SDS011;6427;49.754;6.106;2022-09-09T13:36:58;1.33;;;0.93;;
12725;SDS011;6427;49.754;6.106;2022-09-09T13:39:26;5.10;;;0.83;;
12725;SDS011;6427;49.754;6.106;2022-09-09T13:41:53;5.87;;;1.00;;
12725;SDS011;6427;49.754;6.106;2022-09-09T13:44:25;4.37;;;0.87;;
12725;SDS011;6427;49.754;6.106;2022-09-09T13:46:58;5.73;;;1.00;;
12725;SDS011;6427;49.754;6.106;2022-09-09T13:51:45;3.80;;;0.60;;
12725;SDS011;6427;49.754;6.106;2022-09-09T13:54:11;2.87;;;0.87;;
12725;SDS011;6427;49.754;6.106;2022-09-09T13:56:39;5.10;;;0.97;;
12725;SDS011;6427;49.754;6.106;2022-09-09T13:59:09;5.60;;;1.12;;
12725;SDS011;6427;49.754;6.106;2022-09-09T14:01:34;5.33;;;1.17;;
12725;SDS011;6427;49.754;6.106;2022-09-09T14:04:02;4.13;;;0.80;;
12725;SDS011;6427;49.754;6.106;2022-09-09T14:06:29;3.53;;;0.93;;
12725;SDS011;6427;49.754;6.106;2022-09-09T14:08:57;2.60;;;0.90;;
12725;SDS011;6427;49.754;6.106;2022-09-09T14:11:25;2.00;;;0.60;;
12725;SDS011;6427;49.754;6.106;2022-09-09T14:13:52;3.20;;;0.90;;
12725;SDS011;6427;49.754;6.106;2022-09-09T14:16:20;5.30;;;1.03;;
12725;SDS011;6427;49.754;6.106;2022-09-09T14:18:48;4.13;;;0.90;;
12725;SDS011;6427;49.754;6.106;2022-09-09T14:21:16;7.43;;;0.90;;
12725;SDS011;6427;49.754;6.106;2022-09-09T14:23:43;3.85;;;1.33;;
12725;SDS011;6427;49.754;6.106;2022-09-09T14:26:11;3.43;;;1.00;;
12725;SDS011;6427;49.754;6.106;2022-09-09T14:28:38;3.90;;;0.90;;
12725;SDS011;6427;49.754;6.106;2022-09-09T14:31:06;1.67;;;0.90;;
12725;SDS011;6427;49.754;6.106;2022-09-09T14:33:33;3.70;;;1.07;;
12725;SDS011;6427;49.754;6.106;2022-09-09T14:36:02;4.00;;;1.00;;
12725;SDS011;6427;49.754;6.106;2022-09-09T14:38:29;3.07;;;0.70;;
12725;SDS011;6427;49.754;6.106;2022-09-09T14:40:56;3.83;;;0.80;;
12725;SDS011;6427;49.754;6.106;2022-09-09T14:43:24;3.20;;;1.07;;
12725;SDS011;6427;49.754;6.106;2022-09-09T14:45:51;5.50;;;1.30;;
12725;SDS011;6427;49.754;6.106;2022-09-09T14:48:19;3.63;;;1.00;;
12725;SDS011;6427;49.754;6.106;2022-09-09T14:50:46;5.07;;;1.00;;
12725;SDS011;6427;49.754;6.106;2022-09-09T14:53:14;1.67;;;0.70;;
12725;SDS011;6427;49.754;6.106;2022-09-09T14:55:41;1.43;;;0.93;;
12725;SDS011;6427;49.754;6.106;2022-09-09T14:58:09;5.50;;;1.20;;
12725;SDS011;6427;49.754;6.106;2022-09-09T15:00:36;5.27;;;1.20;;
12725;SDS011;6427;49.754;6.106;2022-09-09T15:03:05;3.97;;;1.10;;
12725;SDS011;6427;49.754;6.106;2022-09-09T15:05:33;2.40;;;1.00;;
12725;SDS011;6427;49.754;6.106;2022-09-09T15:08:00;3.73;;;0.80;;
12725;SDS011;6427;49.754;6.106;2022-09-09T15:10:28;2.77;;;0.80;;
12725;SDS011;6427;49.754;6.106;2022-09-09T15:12:55;3.00;;;1.00;;
12725;SDS011;6427;49.754;6.106;2022-09-09T15:15:23;2.77;;;0.80;;
12725;SDS011;6427;49.754;6.106;2022-09-09T15:17:50;4.10;;;1.27;;
12725;SDS011;6427;49.754;6.106;2022-09-09T15:20:18;2.70;;;0.80;;
12725;SDS011;6427;49.754;6.106;2022-09-09T15:22:45;4.13;;;1.07;;
12725;SDS011;6427;49.754;6.106;2022-09-09T15:25:13;6.13;;;1.10;;
12725;SDS011;6427;49.754;6.106;2022-09-09T15:27:41;3.53;;;0.90;;
12725;SDS011;6427;49.754;6.106;2022-09-09T15:30:09;1.53;;;0.70;;
12725;SDS011;6427;49.754;6.106;2022-09-09T15:32:36;2.50;;;0.60;;
12725;SDS011;6427;49.754;6.106;2022-09-09T15:35:04;1.57;;;0.40;;
12725;SDS011;6427;49.754;6.106;2022-09-09T15:37:32;3.57;;;0.60;;
12725;SDS011;6427;49.754;6.106;2022-09-09T15:39:59;4.60;;;0.37;;
12725;SDS011;6427;49.754;6.106;2022-09-09T15:42:27;1.50;;;0.60;;
12725;SDS011;6427;49.754;6.106;2022-09-09T15:44:54;2.63;;;0.70;;
12725;SDS011;6427;49.754;6.106;2022-09-09T15:47:22;2.73;;;0.77;;
12725;SDS011;6427;49.754;6.106;2022-09-09T15:49:50;2.47;;;0.57;;
12725;SDS011;6427;49.754;6.106;2022-09-09T15:52:17;3.17;;;0.70;;
12725;SDS011;6427;49.754;6.106;2022-09-09T15:54:45;2.43;;;0.60;;
12725;SDS011;6427;49.754;6.106;2022-09-09T15:57:13;5.73;;;1.03;;
12725;SDS011;6427;49.754;6.106;2022-09-09T15:59:40;1.73;;;0.80;;
12725;SDS011;6427;49.754;6.106;2022-09-09T16:02:08;2.00;;;0.60;;
12725;SDS011;6427;49.754;6.106;2022-09-09T16:04:36;4.07;;;1.00;;
12725;SDS011;6427;49.754;6.106;2022-09-09T16:07:04;2.53;;;0.93;;
12725;SDS011;6427;49.754;6.106;2022-09-09T16:09:32;5.53;;;1.07;;
12725;SDS011;6427;49.754;6.106;2022-09-09T16:12:00;3.67;;;0.90;;
12725;SDS011;6427;49.754;6.106;2022-09-09T16:14:27;2.10;;;0.70;;
12725;SDS011;6427;49.754;6.106;2022-09-09T16:16:55;2.53;;;0.90;;
12725;SDS011;6427;49.754;6.106;2022-09-09T16:19:26;1.63;;;0.80;;
12725;SDS011;6427;49.754;6.106;2022-09-09T16:21:54;1.70;;;0.50;;
12725;SDS011;6427;49.754;6.106;2022-09-09T16:24:21;4.27;;;1.00;;
12725;SDS011;6427;49.754;6.106;2022-09-09T16:26:50;3.10;;;0.80;;
12725;SDS011;6427;49.754;6.106;2022-09-09T16:29:17;7.03;;;0.90;;
12725;SDS011;6427;49.754;6.106;2022-09-09T16:31:45;3.37;;;0.40;;
12725;SDS011;6427;49.754;6.106;2022-09-09T16:34:12;1.73;;;0.67;;
12725;SDS011;6427;49.754;6.106;2022-09-09T16:36:40;4.63;;;0.90;;
12725;SDS011;6427;49.754;6.106;2022-09-09T16:39:09;2.43;;;0.83;;
12725;SDS011;6427;49.754;6.106;2022-09-09T16:41:36;3.78;;;0.70;;
12725;SDS011;6427;49.754;6.106;2022-09-09T16:44:04;4.72;;;0.98;;
12725;SDS011;6427;49.754;6.106;2022-09-09T16:46:31;3.23;;;0.60;;
12725;SDS011;6427;49.754;6.106;2022-09-09T16:48:59;2.07;;;0.73;;
12725;SDS011;6427;49.754;6.106;2022-09-09T16:51:30;1.53;;;0.60;;